Terminal Aerodrome Forecast
Issued by NWS Lake Charles, LA

Home | Current Version | Previous Version | Text Only | Print | Product List | Glossary On
Versions: 1 2 3 4 5 6 7 8 9 10 11 12 13 14 15 16 17 18 19 20 21 22
000
FTUS44 KLCH 270520
TAFLFT
TAF
KLFT 270520Z 2706/2806 09004KT P6SM BKN022 OVC060
     FM271500 08014G22KT 6SM SHRA VCTS OVC025CB
      TEMPO 2715/2719 VRB25G40KT 1/2SM +TSRAGR OVC005CB
     FM271900 04012G20KT 1SM +TSRA BR BKN007 OVC020CB
     FM272200 05012G20KT P6SM VCTS SCT012 OVC025CB
     FM280200 04010G15KT 6SM -RA OVC012=

USA.gov is the U.S. government's official web portal to all federal, state and local government web resources and services.